sensor_id;sensor_type;location;lat;lon;timestamp;P1;durP1;ratioP1;P2;durP2;ratioP2
67979;SDS011;54760;47.490;19.030;2022-07-23T00:00:31;5.75;;;4.62;;
67979;SDS011;54760;47.490;19.030;2022-07-23T00:02:56;8.50;;;4.55;;
67979;SDS011;54760;47.490;19.030;2022-07-23T00:05:22;6.93;;;4.70;;
67979;SDS011;54760;47.490;19.030;2022-07-23T00:07:47;4.82;;;4.20;;
67979;SDS011;54760;47.490;19.030;2022-07-23T00:10:13;6.07;;;4.93;;
67979;SDS011;54760;47.490;19.030;2022-07-23T00:12:38;10.25;;;4.45;;
67979;SDS011;54760;47.490;19.030;2022-07-23T00:15:04;4.90;;;4.30;;
67979;SDS011;54760;47.490;19.030;2022-07-23T00:17:31;6.55;;;4.70;;
67979;SDS011;54760;47.490;19.030;2022-07-23T00:19:57;9.20;;;4.95;;
67979;SDS011;54760;47.490;19.030;2022-07-23T00:22:22;5.12;;;4.55;;
67979;SDS011;54760;47.490;19.030;2022-07-23T00:24:48;6.28;;;4.60;;
67979;SDS011;54760;47.490;19.030;2022-07-23T00:27:13;7.85;;;4.32;;
67979;SDS011;54760;47.490;19.030;2022-07-23T00:29:39;7.85;;;4.55;;
67979;SDS011;54760;47.490;19.030;2022-07-23T00:32:04;7.35;;;4.55;;
67979;SDS011;54760;47.490;19.030;2022-07-23T00:34:30;6.60;;;4.85;;
67979;SDS011;54760;47.490;19.030;2022-07-23T00:36:55;6.45;;;4.70;;
67979;SDS011;54760;47.490;19.030;2022-07-23T00:39:21;8.13;;;4.85;;
67979;SDS011;54760;47.490;19.030;2022-07-23T00:41:47;7.15;;;4.37;;
67979;SDS011;54760;47.490;19.030;2022-07-23T00:44:17;6.47;;;4.93;;
67979;SDS011;54760;47.490;19.030;2022-07-23T00:46:51;7.62;;;4.75;;
67979;SDS011;54760;47.490;19.030;2022-07-23T00:49:21;7.07;;;4.45;;
67979;SDS011;54760;47.490;19.030;2022-07-23T00:51:48;6.97;;;4.68;;
67979;SDS011;54760;47.490;19.030;2022-07-23T00:54:14;7.85;;;4.62;;
67979;SDS011;54760;47.490;19.030;2022-07-23T00:56:41;7.72;;;5.05;;
67979;SDS011;54760;47.490;19.030;2022-07-23T00:59:08;5.05;;;4.53;;
67979;SDS011;54760;47.490;19.030;2022-07-23T01:01:33;8.32;;;4.40;;
67979;SDS011;54760;47.490;19.030;2022-07-23T01:03:59;5.30;;;4.80;;
67979;SDS011;54760;47.490;19.030;2022-07-23T01:06:24;5.78;;;4.47;;
67979;SDS011;54760;47.490;19.030;2022-07-23T01:08:49;6.60;;;4.93;;
67979;SDS011;54760;47.490;19.030;2022-07-23T01:11:15;8.40;;;4.43;;
67979;SDS011;54760;47.490;19.030;2022-07-23T01:13:43;6.28;;;4.35;;
67979;SDS011;54760;47.490;19.030;2022-07-23T01:16:09;7.47;;;4.78;;
67979;SDS011;54760;47.490;19.030;2022-07-23T01:18:34;5.72;;;4.55;;
67979;SDS011;54760;47.490;19.030;2022-07-23T01:20:59;5.97;;;4.68;;
67979;SDS011;54760;47.490;19.030;2022-07-23T01:23:25;8.25;;;4.47;;
67979;SDS011;54760;47.490;19.030;2022-07-23T01:25:54;8.63;;;4.80;;
67979;SDS011;54760;47.490;19.030;2022-07-23T01:28:20;5.80;;;5.03;;
67979;SDS011;54760;47.490;19.030;2022-07-23T01:30:46;9.15;;;5.45;;
67979;SDS011;54760;47.490;19.030;2022-07-23T01:33:12;7.57;;;4.55;;
67979;SDS011;54760;47.490;19.030;2022-07-23T01:35:38;10.43;;;5.10;;
67979;SDS011;54760;47.490;19.030;2022-07-23T01:38:03;8.07;;;4.80;;
67979;SDS011;54760;47.490;19.030;2022-07-23T01:40:28;6.82;;;5.10;;
67979;SDS011;54760;47.490;19.030;2022-07-23T01:42:54;6.50;;;5.10;;
67979;SDS011;54760;47.490;19.030;2022-07-23T01:45:19;5.97;;;4.78;;
67979;SDS011;54760;47.490;19.030;2022-07-23T01:47:45;6.60;;;5.60;;
67979;SDS011;54760;47.490;19.030;2022-07-23T01:50:11;6.85;;;4.97;;
67979;SDS011;54760;47.490;19.030;2022-07-23T01:52:37;10.20;;;5.10;;
67979;SDS011;54760;47.490;19.030;2022-07-23T01:55:02;12.00;;;5.22;;
67979;SDS011;54760;47.490;19.030;2022-07-23T01:57:28;6.62;;;5.60;;
67979;SDS011;54760;47.490;19.030;2022-07-23T01:59:53;6.60;;;5.18;;
67979;SDS011;54760;47.490;19.030;2022-07-23T02:02:19;7.47;;;5.12;;
67979;SDS011;54760;47.490;19.030;2022-07-23T02:04:44;7.95;;;5.20;;
67979;SDS011;54760;47.490;19.030;2022-07-23T02:07:09;5.32;;;4.82;;
67979;SDS011;54760;47.490;19.030;2022-07-23T02:09:35;8.90;;;5.50;;
67979;SDS011;54760;47.490;19.030;2022-07-23T02:12:00;7.87;;;5.43;;
67979;SDS011;54760;47.490;19.030;2022-07-23T02:14:26;7.15;;;4.97;;
67979;SDS011;54760;47.490;19.030;2022-07-23T02:16:51;6.35;;;5.12;;
67979;SDS011;54760;47.490;19.030;2022-07-23T02:19:17;8.68;;;5.25;;
67979;SDS011;54760;47.490;19.030;2022-07-23T02:21:42;7.10;;;5.30;;
67979;SDS011;54760;47.490;19.030;2022-07-23T02:24:08;7.35;;;5.20;;
67979;SDS011;54760;47.490;19.030;2022-07-23T02:26:34;9.15;;;5.03;;
67979;SDS011;54760;47.490;19.030;2022-07-23T02:29:00;6.37;;;4.55;;
67979;SDS011;54760;47.490;19.030;2022-07-23T02:31:27;5.90;;;5.35;;
67979;SDS011;54760;47.490;19.030;2022-07-23T02:33:54;5.95;;;5.20;;
67979;SDS011;54760;47.490;19.030;2022-07-23T02:36:20;6.72;;;5.47;;
67979;SDS011;54760;47.490;19.030;2022-07-23T02:38:45;6.62;;;5.10;;
67979;SDS011;54760;47.490;19.030;2022-07-23T02:41:12;6.05;;;5.00;;
67979;SDS011;54760;47.490;19.030;2022-07-23T02:43:37;7.30;;;5.30;;
67979;SDS011;54760;47.490;19.030;2022-07-23T02:46:03;6.18;;;5.28;;
67979;SDS011;54760;47.490;19.030;2022-07-23T02:48:28;7.68;;;5.10;;
67979;SDS011;54760;47.490;19.030;2022-07-23T02:50:54;5.65;;;4.75;;
67979;SDS011;54760;47.490;19.030;2022-07-23T02:53:21;6.20;;;5.10;;
67979;SDS011;54760;47.490;19.030;2022-07-23T02:55:47;5.72;;;5.12;;
67979;SDS011;54760;47.490;19.030;2022-07-23T02:58:12;9.13;;;5.10;;
67979;SDS011;54760;47.490;19.030;2022-07-23T03:00:37;6.57;;;4.93;;
67979;SDS011;54760;47.490;19.030;2022-07-23T03:03:03;6.15;;;4.90;;
67979;SDS011;54760;47.490;19.030;2022-07-23T03:05:28;9.52;;;5.40;;
67979;SDS011;54760;47.490;19.030;2022-07-23T03:07:54;8.98;;;5.18;;
67979;SDS011;54760;47.490;19.030;2022-07-23T03:10:19;6.07;;;5.28;;
67979;SDS011;54760;47.490;19.030;2022-07-23T03:12:44;7.35;;;5.03;;
67979;SDS011;54760;47.490;19.030;2022-07-23T03:26:47;6.80;;;5.10;;
67979;SDS011;54760;47.490;19.030;2022-07-23T03:29:12;9.05;;;5.07;;
67979;SDS011;54760;47.490;19.030;2022-07-23T03:31:38;7.32;;;4.87;;
67979;SDS011;54760;47.490;19.030;2022-07-23T03:34:03;9.48;;;4.85;;
67979;SDS011;54760;47.490;19.030;2022-07-23T03:36:28;10.73;;;4.90;;
67979;SDS011;54760;47.490;19.030;2022-07-23T03:38:54;10.32;;;5.43;;
67979;SDS011;54760;47.490;19.030;2022-07-23T03:41:19;6.18;;;5.07;;
67979;SDS011;54760;47.490;19.030;2022-07-23T03:43:45;5.53;;;5.00;;
67979;SDS011;54760;47.490;19.030;2022-07-23T03:46:11;6.72;;;5.22;;
67979;SDS011;54760;47.490;19.030;2022-07-23T03:48:37;7.78;;;5.15;;
67979;SDS011;54760;47.490;19.030;2022-07-23T03:51:03;7.05;;;5.05;;
67979;SDS011;54760;47.490;19.030;2022-07-23T03:53:29;6.18;;;5.15;;
67979;SDS011;54760;47.490;19.030;2022-07-23T03:55:54;7.55;;;5.28;;
67979;SDS011;54760;47.490;19.030;2022-07-23T03:58:19;7.78;;;5.05;;
67979;SDS011;54760;47.490;19.030;2022-07-23T04:00:45;7.80;;;5.25;;
67979;SDS011;54760;47.490;19.030;2022-07-23T04:03:11;9.13;;;5.47;;
67979;SDS011;54760;47.490;19.030;2022-07-23T04:05:36;7.37;;;5.07;;
67979;SDS011;54760;47.490;19.030;2022-07-23T04:08:02;19.73;;;6.60;;
67979;SDS011;54760;47.490;19.030;2022-07-23T04:10:27;9.40;;;5.10;;
67979;SDS011;54760;47.490;19.030;2022-07-23T04:12:53;8.70;;;5.90;;
67979;SDS011;54760;47.490;19.030;2022-07-23T04:15:18;7.97;;;5.15;;
67979;SDS011;54760;47.490;19.030;2022-07-23T04:17:44;7.47;;;5.12;;
67979;SDS011;54760;47.490;19.030;2022-07-23T04:20:10;7.43;;;5.82;;
67979;SDS011;54760;47.490;19.030;2022-07-23T04:22:36;10.30;;;5.65;;
67979;SDS011;54760;47.490;19.030;2022-07-23T04:25:02;6.55;;;5.25;;
67979;SDS011;54760;47.490;19.030;2022-07-23T04:27:27;8.65;;;4.93;;
67979;SDS011;54760;47.490;19.030;2022-07-23T04:29:53;7.35;;;4.87;;
67979;SDS011;54760;47.490;19.030;2022-07-23T04:32:18;7.60;;;4.90;;
67979;SDS011;54760;47.490;19.030;2022-07-23T04:34:44;5.93;;;5.00;;
67979;SDS011;54760;47.490;19.030;2022-07-23T04:37:09;8.57;;;4.97;;
67979;SDS011;54760;47.490;19.030;2022-07-23T04:39:34;6.68;;;5.03;;
67979;SDS011;54760;47.490;19.030;2022-07-23T04:42:00;10.75;;;5.37;;
67979;SDS011;54760;47.490;19.030;2022-07-23T04:44:25;11.25;;;5.35;;
67979;SDS011;54760;47.490;19.030;2022-07-23T04:46:51;5.87;;;4.75;;
67979;SDS011;54760;47.490;19.030;2022-07-23T04:49:17;7.20;;;5.37;;
67979;SDS011;54760;47.490;19.030;2022-07-23T04:51:42;6.03;;;5.20;;
67979;SDS011;54760;47.490;19.030;2022-07-23T04:54:07;9.30;;;5.57;;
67979;SDS011;54760;47.490;19.030;2022-07-23T04:56:33;8.38;;;5.12;;
67979;SDS011;54760;47.490;19.030;2022-07-23T04:58:58;6.87;;;5.05;;
67979;SDS011;54760;47.490;19.030;2022-07-23T05:01:23;7.10;;;5.03;;
67979;SDS011;54760;47.490;19.030;2022-07-23T05:03:49;7.85;;;5.15;;
67979;SDS011;54760;47.490;19.030;2022-07-23T05:06:14;5.30;;;4.80;;
67979;SDS011;54760;47.490;19.030;2022-07-23T05:08:40;6.30;;;5.57;;
67979;SDS011;54760;47.490;19.030;2022-07-23T05:11:05;9.63;;;5.43;;
67979;SDS011;54760;47.490;19.030;2022-07-23T05:13:31;11.07;;;5.70;;
67979;SDS011;54760;47.490;19.030;2022-07-23T05:15:56;10.88;;;5.80;;
67979;SDS011;54760;47.490;19.030;2022-07-23T05:18:21;6.40;;;5.70;;
67979;SDS011;54760;47.490;19.030;2022-07-23T05:20:47;8.15;;;5.07;;
67979;SDS011;54760;47.490;19.030;2022-07-23T05:23:12;8.80;;;5.00;;
67979;SDS011;54760;47.490;19.030;2022-07-23T05:25:37;8.80;;;5.20;;
67979;SDS011;54760;47.490;19.030;2022-07-23T05:28:03;8.82;;;5.05;;
67979;SDS011;54760;47.490;19.030;2022-07-23T05:30:28;9.93;;;4.80;;
67979;SDS011;54760;47.490;19.030;2022-07-23T05:32:54;7.05;;;5.28;;
67979;SDS011;54760;47.490;19.030;2022-07-23T05:35:19;8.68;;;4.78;;
67979;SDS011;54760;47.490;19.030;2022-07-23T05:37:44;11.32;;;4.50;;
67979;SDS011;54760;47.490;19.030;2022-07-23T05:40:10;7.85;;;4.93;;
67979;SDS011;54760;47.490;19.030;2022-07-23T05:42:37;8.63;;;4.60;;
67979;SDS011;54760;47.490;19.030;2022-07-23T05:45:04;10.57;;;4.57;;
67979;SDS011;54760;47.490;19.030;2022-07-23T05:47:43;6.35;;;4.72;;
67979;SDS011;54760;47.490;19.030;2022-07-23T05:50:10;9.13;;;4.45;;
67979;SDS011;54760;47.490;19.030;2022-07-23T05:52:36;6.40;;;4.60;;
67979;SDS011;54760;47.490;19.030;2022-07-23T05:55:02;7.80;;;4.40;;
67979;SDS011;54760;47.490;19.030;2022-07-23T05:57:27;10.38;;;4.55;;
67979;SDS011;54760;47.490;19.030;2022-07-23T05:59:53;10.93;;;4.80;;
67979;SDS011;54760;47.490;19.030;2022-07-23T06:02:18;8.95;;;4.70;;
67979;SDS011;54760;47.490;19.030;2022-07-23T06:04:43;10.35;;;4.82;;
67979;SDS011;54760;47.490;19.030;2022-07-23T06:07:09;7.22;;;4.60;;
67979;SDS011;54760;47.490;19.030;2022-07-23T06:09:34;7.57;;;4.75;;
67979;SDS011;54760;47.490;19.030;2022-07-23T06:11:59;8.82;;;4.40;;
67979;SDS011;54760;47.490;19.030;2022-07-23T06:14:25;9.23;;;5.20;;
67979;SDS011;54760;47.490;19.030;2022-07-23T06:16:50;8.00;;;5.32;;
67979;SDS011;54760;47.490;19.030;2022-07-23T06:19:15;13.95;;;4.60;;
67979;SDS011;54760;47.490;19.030;2022-07-23T06:21:41;8.23;;;4.72;;
67979;SDS011;54760;47.490;19.030;2022-07-23T06:24:06;9.18;;;4.80;;
67979;SDS011;54760;47.490;19.030;2022-07-23T06:26:32;8.80;;;5.03;;
67979;SDS011;54760;47.490;19.030;2022-07-23T06:28:57;12.75;;;5.53;;
67979;SDS011;54760;47.490;19.030;2022-07-23T06:31:23;10.77;;;5.22;;
67979;SDS011;54760;47.490;19.030;2022-07-23T06:33:48;8.50;;;5.30;;
67979;SDS011;54760;47.490;19.030;2022-07-23T06:36:13;10.68;;;5.12;;
67979;SDS011;54760;47.490;19.030;2022-07-23T06:38:39;12.57;;;5.18;;
67979;SDS011;54760;47.490;19.030;2022-07-23T06:41:04;7.05;;;4.62;;
67979;SDS011;54760;47.490;19.030;2022-07-23T06:43:30;9.50;;;4.65;;
67979;SDS011;54760;47.490;19.030;2022-07-23T06:45:56;12.23;;;5.20;;
67979;SDS011;54760;47.490;19.030;2022-07-23T06:48:21;8.23;;;5.20;;
67979;SDS011;54760;47.490;19.030;2022-07-23T06:50:47;19.12;;;5.85;;
67979;SDS011;54760;47.490;19.030;2022-07-23T06:53:13;10.13;;;5.47;;
67979;SDS011;54760;47.490;19.030;2022-07-23T06:55:38;16.95;;;5.78;;
67979;SDS011;54760;47.490;19.030;2022-07-23T06:58:04;10.25;;;5.55;;
67979;SDS011;54760;47.490;19.030;2022-07-23T07:00:30;15.23;;;6.35;;
67979;SDS011;54760;47.490;19.030;2022-07-23T07:02:57;17.15;;;5.65;;
67979;SDS011;54760;47.490;19.030;2022-07-23T07:05:23;14.30;;;5.37;;
67979;SDS011;54760;47.490;19.030;2022-07-23T07:07:50;12.05;;;5.57;;
67979;SDS011;54760;47.490;19.030;2022-07-23T07:10:15;9.82;;;5.50;;
67979;SDS011;54760;47.490;19.030;2022-07-23T07:12:42;10.82;;;4.75;;
67979;SDS011;54760;47.490;19.030;2022-07-23T07:15:07;13.43;;;5.43;;
67979;SDS011;54760;47.490;19.030;2022-07-23T07:17:33;8.10;;;5.25;;
67979;SDS011;54760;47.490;19.030;2022-07-23T07:19:59;9.95;;;4.80;;
67979;SDS011;54760;47.490;19.030;2022-07-23T07:22:24;13.57;;;5.37;;
67979;SDS011;54760;47.490;19.030;2022-07-23T07:24:49;10.50;;;5.00;;
67979;SDS011;54760;47.490;19.030;2022-07-23T07:27:15;10.07;;;5.00;;
67979;SDS011;54760;47.490;19.030;2022-07-23T07:29:40;12.90;;;5.37;;
67979;SDS011;54760;47.490;19.030;2022-07-23T07:32:07;12.05;;;5.12;;
67979;SDS011;54760;47.490;19.030;2022-07-23T07:34:32;11.07;;;4.93;;
67979;SDS011;54760;47.490;19.030;2022-07-23T07:36:58;11.90;;;5.10;;
67979;SDS011;54760;47.490;19.030;2022-07-23T07:39:23;9.98;;;4.93;;
67979;SDS011;54760;47.490;19.030;2022-07-23T07:41:48;10.23;;;5.60;;
67979;SDS011;54760;47.490;19.030;2022-07-23T07:44:14;8.13;;;5.30;;
67979;SDS011;54760;47.490;19.030;2022-07-23T07:46:39;12.05;;;5.35;;
67979;SDS011;54760;47.490;19.030;2022-07-23T07:49:05;12.10;;;5.07;;
67979;SDS011;54760;47.490;19.030;2022-07-23T07:51:30;8.70;;;4.93;;
67979;SDS011;54760;47.490;19.030;2022-07-23T07:53:55;11.38;;;4.97;;
67979;SDS011;54760;47.490;19.030;2022-07-23T07:56:21;11.25;;;4.85;;
67979;SDS011;54760;47.490;19.030;2022-07-23T07:58:46;10.82;;;5.10;;
67979;SDS011;54760;47.490;19.030;2022-07-23T08:01:12;7.60;;;5.10;;
67979;SDS011;54760;47.490;19.030;2022-07-23T08:03:37;8.73;;;5.15;;
67979;SDS011;54760;47.490;19.030;2022-07-23T08:06:02;10.10;;;4.80;;
67979;SDS011;54760;47.490;19.030;2022-07-23T08:08:28;8.90;;;4.80;;
67979;SDS011;54760;47.490;19.030;2022-07-23T08:10:53;12.02;;;4.50;;
67979;SDS011;54760;47.490;19.030;2022-07-23T08:13:18;13.10;;;4.90;;
67979;SDS011;54760;47.490;19.030;2022-07-23T08:15:44;13.27;;;4.95;;
67979;SDS011;54760;47.490;19.030;2022-07-23T08:18:09;10.63;;;4.80;;
67979;SDS011;54760;47.490;19.030;2022-07-23T08:20:35;19.27;;;5.05;;
67979;SDS011;54760;47.490;19.030;2022-07-23T08:23:04;7.45;;;4.50;;
67979;SDS011;54760;47.490;19.030;2022-07-23T08:25:34;9.20;;;4.75;;
67979;SDS011;54760;47.490;19.030;2022-07-23T08:28:02;12.02;;;4.72;;
67979;SDS011;54760;47.490;19.030;2022-07-23T08:30:30;11.30;;;4.75;;
67979;SDS011;54760;47.490;19.030;2022-07-23T08:32:57;7.22;;;4.57;;
67979;SDS011;54760;47.490;19.030;2022-07-23T08:35:25;10.43;;;4.47;;
67979;SDS011;54760;47.490;19.030;2022-07-23T08:37:56;9.77;;;4.70;;
67979;SDS011;54760;47.490;19.030;2022-07-23T08:40:22;6.72;;;4.43;;
67979;SDS011;54760;47.490;19.030;2022-07-23T08:42:50;8.63;;;4.47;;
67979;SDS011;54760;47.490;19.030;2022-07-23T08:45:17;6.90;;;4.32;;
67979;SDS011;54760;47.490;19.030;2022-07-23T08:47:45;6.28;;;4.50;;
67979;SDS011;54760;47.490;19.030;2022-07-23T08:50:16;14.43;;;5.05;;
67979;SDS011;54760;47.490;19.030;2022-07-23T08:52:42;6.87;;;4.68;;
67979;SDS011;54760;47.490;19.030;2022-07-23T08:55:08;10.27;;;4.43;;
67979;SDS011;54760;47.490;19.030;2022-07-23T08:57:33;12.20;;;4.72;;
67979;SDS011;54760;47.490;19.030;2022-07-23T08:59:59;9.50;;;4.65;;
67979;SDS011;54760;47.490;19.030;2022-07-23T09:02:24;11.48;;;4.75;;
67979;SDS011;54760;47.490;19.030;2022-07-23T09:04:50;9.15;;;4.60;;
67979;SDS011;54760;47.490;19.030;2022-07-23T09:07:15;8.02;;;4.80;;
67979;SDS011;54760;47.490;19.030;2022-07-23T09:09:41;9.48;;;4.60;;
67979;SDS011;54760;47.490;19.030;2022-07-23T09:12:07;9.95;;;4.93;;
67979;SDS011;54760;47.490;19.030;2022-07-23T09:14:44;8.70;;;4.47;;
67979;SDS011;54760;47.490;19.030;2022-07-23T09:17:17;6.22;;;4.05;;
67979;SDS011;54760;47.490;19.030;2022-07-23T09:19:43;7.40;;;4.15;;
67979;SDS011;54760;47.490;19.030;2022-07-23T09:22:16;6.55;;;4.35;;
67979;SDS011;54760;47.490;19.030;2022-07-23T09:27:45;6.35;;;4.25;;
67979;SDS011;54760;47.490;19.030;2022-07-23T09:30:15;5.07;;;4.10;;
67979;SDS011;54760;47.490;19.030;2022-07-23T09:32:41;5.70;;;4.30;;
67979;SDS011;54760;47.490;19.030;2022-07-23T09:35:07;8.65;;;3.92;;
67979;SDS011;54760;47.490;19.030;2022-07-23T09:37:33;5.97;;;3.90;;
67979;SDS011;54760;47.490;19.030;2022-07-23T09:40:05;7.80;;;4.03;;
67979;SDS011;54760;47.490;19.030;2022-07-23T09:42:33;11.30;;;4.53;;
67979;SDS011;54760;47.490;19.030;2022-07-23T09:44:59;5.75;;;4.00;;
67979;SDS011;54760;47.490;19.030;2022-07-23T09:47:28;7.70;;;4.35;;
67979;SDS011;54760;47.490;19.030;2022-07-23T09:52:28;11.25;;;4.43;;
67979;SDS011;54760;47.490;19.030;2022-07-23T09:54:58;8.13;;;4.25;;
67979;SDS011;54760;47.490;19.030;2022-07-23T09:57:25;9.52;;;4.20;;
67979;SDS011;54760;47.490;19.030;2022-07-23T09:59:51;5.20;;;3.92;;
67979;SDS011;54760;47.490;19.030;2022-07-23T10:02:17;11.55;;;4.80;;
67979;SDS011;54760;47.490;19.030;2022-07-23T10:04:43;8.40;;;4.25;;
67979;SDS011;54760;47.490;19.030;2022-07-23T10:07:09;7.18;;;4.57;;
67979;SDS011;54760;47.490;19.030;2022-07-23T10:09:39;10.90;;;4.55;;
67979;SDS011;54760;47.490;19.030;2022-07-23T10:12:13;10.02;;;4.60;;
67979;SDS011;54760;47.490;19.030;2022-07-23T10:14:58;10.35;;;4.65;;
67979;SDS011;54760;47.490;19.030;2022-07-23T10:17:25;10.07;;;4.57;;
67979;SDS011;54760;47.490;19.030;2022-07-23T10:19:52;8.57;;;4.37;;
67979;SDS011;54760;47.490;19.030;2022-07-23T10:22:25;6.28;;;4.70;;
67979;SDS011;54760;47.490;19.030;2022-07-23T10:27:58;14.45;;;4.43;;
67979;SDS011;54760;47.490;19.030;2022-07-23T10:41:32;7.32;;;4.65;;
67979;SDS011;54760;47.490;19.030;2022-07-23T10:46:31;13.27;;;5.30;;
67979;SDS011;54760;47.490;19.030;2022-07-23T10:54:40;6.80;;;4.68;;
67979;SDS011;54760;47.490;19.030;2022-07-23T10:57:07;7.00;;;4.45;;
67979;SDS011;54760;47.490;19.030;2022-07-23T11:02:24;7.95;;;4.82;;
67979;SDS011;54760;47.490;19.030;2022-07-23T11:04:51;10.73;;;5.20;;
67979;SDS011;54760;47.490;19.030;2022-07-23T11:07:17;8.38;;;5.07;;
67979;SDS011;54760;47.490;19.030;2022-07-23T11:09:43;9.30;;;5.12;;
67979;SDS011;54760;47.490;19.030;2022-07-23T11:17:22;7.50;;;4.95;;
67979;SDS011;54760;47.490;19.030;2022-07-23T11:22:40;7.47;;;4.60;;
67979;SDS011;54760;47.490;19.030;2022-07-23T11:27:47;6.30;;;4.43;;
67979;SDS011;54760;47.490;19.030;2022-07-23T11:30:55;6.93;;;4.45;;
67979;SDS011;54760;47.490;19.030;2022-07-23T11:35:32;11.15;;;5.20;;
67979;SDS011;54760;47.490;19.030;2022-07-23T11:38:05;8.07;;;4.97;;
67979;SDS011;54760;47.490;19.030;2022-07-23T11:40:37;7.00;;;4.72;;
67979;SDS011;54760;47.490;19.030;2022-07-23T11:43:04;9.05;;;5.32;;
67979;SDS011;54760;47.490;19.030;2022-07-23T11:45:33;7.28;;;5.28;;
67979;SDS011;54760;47.490;19.030;2022-07-23T11:48:03;6.55;;;5.07;;
67979;SDS011;54760;47.490;19.030;2022-07-23T11:50:30;8.80;;;4.93;;
67979;SDS011;54760;47.490;19.030;2022-07-23T11:52:55;7.82;;;4.87;;
67979;SDS011;54760;47.490;19.030;2022-07-23T11:55:21;9.30;;;4.75;;
67979;SDS011;54760;47.490;19.030;2022-07-23T11:57:47;9.43;;;5.20;;
67979;SDS011;54760;47.490;19.030;2022-07-23T12:00:16;8.00;;;6.00;;
67979;SDS011;54760;47.490;19.030;2022-07-23T12:02:48;6.95;;;5.57;;
67979;SDS011;54760;47.490;19.030;2022-07-23T12:05:16;8.90;;;5.80;;
67979;SDS011;54760;47.490;19.030;2022-07-23T12:07:44;7.62;;;5.22;;
67979;SDS011;54760;47.490;19.030;2022-07-23T12:10:18;7.55;;;5.10;;
67979;SDS011;54760;47.490;19.030;2022-07-23T12:12:48;11.32;;;5.25;;
67979;SDS011;54760;47.490;19.030;2022-07-23T12:15:16;6.35;;;5.05;;
67979;SDS011;54760;47.490;19.030;2022-07-23T12:17:44;11.35;;;5.18;;
67979;SDS011;54760;47.490;19.030;2022-07-23T12:20:12;6.20;;;5.10;;
67979;SDS011;54760;47.490;19.030;2022-07-23T12:22:44;6.25;;;4.87;;
67979;SDS011;54760;47.490;19.030;2022-07-23T12:25:15;9.25;;;5.78;;
67979;SDS011;54760;47.490;19.030;2022-07-23T12:27:42;9.68;;;6.45;;
67979;SDS011;54760;47.490;19.030;2022-07-23T12:30:18;9.15;;;5.85;;
67979;SDS011;54760;47.490;19.030;2022-07-23T12:32:56;8.68;;;5.28;;
67979;SDS011;54760;47.490;19.030;2022-07-23T12:35:23;11.73;;;5.05;;
67979;SDS011;54760;47.490;19.030;2022-07-23T12:37:59;6.75;;;4.47;;
67979;SDS011;54760;47.490;19.030;2022-07-23T12:43:02;7.75;;;4.97;;
67979;SDS011;54760;47.490;19.030;2022-07-23T12:45:42;7.45;;;5.05;;
67979;SDS011;54760;47.490;19.030;2022-07-23T12:53:43;8.68;;;5.43;;
67979;SDS011;54760;47.490;19.030;2022-07-23T12:56:17;9.15;;;5.18;;
67979;SDS011;54760;47.490;19.030;2022-07-23T13:03:54;13.15;;;5.12;;
67979;SDS011;54760;47.490;19.030;2022-07-23T13:06:19;6.03;;;4.87;;
67979;SDS011;54760;47.490;19.030;2022-07-23T13:08:45;9.35;;;4.95;;
67979;SDS011;54760;47.490;19.030;2022-07-23T13:11:10;7.70;;;4.70;;
67979;SDS011;54760;47.490;19.030;2022-07-23T13:13:36;9.43;;;5.10;;
67979;SDS011;54760;47.490;19.030;2022-07-23T13:16:01;6.68;;;4.97;;
67979;SDS011;54760;47.490;19.030;2022-07-23T13:18:27;8.60;;;5.50;;
67979;SDS011;54760;47.490;19.030;2022-07-23T13:20:53;6.43;;;4.80;;
67979;SDS011;54760;47.490;19.030;2022-07-23T13:23:20;6.62;;;4.80;;
67979;SDS011;54760;47.490;19.030;2022-07-23T13:25:46;8.75;;;5.03;;
67979;SDS011;54760;47.490;19.030;2022-07-23T13:28:12;9.20;;;5.00;;
67979;SDS011;54760;47.490;19.030;2022-07-23T13:30:39;7.10;;;4.75;;
67979;SDS011;54760;47.490;19.030;2022-07-23T13:33:05;6.53;;;4.75;;
67979;SDS011;54760;47.490;19.030;2022-07-23T13:35:31;13.48;;;5.15;;
67979;SDS011;54760;47.490;19.030;2022-07-23T13:37:58;7.07;;;4.78;;
67979;SDS011;54760;47.490;19.030;2022-07-23T13:40:24;7.05;;;4.60;;
67979;SDS011;54760;47.490;19.030;2022-07-23T13:42:49;5.50;;;4.70;;
67979;SDS011;54760;47.490;19.030;2022-07-23T13:45:14;11.18;;;5.20;;
67979;SDS011;54760;47.490;19.030;2022-07-23T13:47:40;6.03;;;4.57;;
67979;SDS011;54760;47.490;19.030;2022-07-23T13:50:05;5.18;;;4.68;;
67979;SDS011;54760;47.490;19.030;2022-07-23T13:52:31;9.35;;;5.25;;
67979;SDS011;54760;47.490;19.030;2022-07-23T13:54:59;6.07;;;5.00;;
67979;SDS011;54760;47.490;19.030;2022-07-23T13:57:26;6.72;;;5.40;;
67979;SDS011;54760;47.490;19.030;2022-07-23T13:59:51;7.28;;;5.03;;
67979;SDS011;54760;47.490;19.030;2022-07-23T14:02:17;7.87;;;4.90;;
67979;SDS011;54760;47.490;19.030;2022-07-23T14:04:43;5.82;;;5.22;;
67979;SDS011;54760;47.490;19.030;2022-07-23T14:07:09;7.72;;;5.53;;
67979;SDS011;54760;47.490;19.030;2022-07-23T14:09:34;8.68;;;5.50;;
67979;SDS011;54760;47.490;19.030;2022-07-23T14:12:00;10.07;;;5.25;;
67979;SDS011;54760;47.490;19.030;2022-07-23T14:14:25;8.40;;;5.32;;
67979;SDS011;54760;47.490;19.030;2022-07-23T14:16:51;7.20;;;5.53;;
67979;SDS011;54760;47.490;19.030;2022-07-23T14:19:16;8.40;;;5.90;;
67979;SDS011;54760;47.490;19.030;2022-07-23T14:21:41;6.70;;;5.10;;
67979;SDS011;54760;47.490;19.030;2022-07-23T14:24:07;9.70;;;5.35;;
67979;SDS011;54760;47.490;19.030;2022-07-23T14:26:33;7.30;;;6.18;;
67979;SDS011;54760;47.490;19.030;2022-07-23T14:28:58;6.47;;;5.72;;
67979;SDS011;54760;47.490;19.030;2022-07-23T14:31:24;8.88;;;5.50;;
67979;SDS011;54760;47.490;19.030;2022-07-23T14:33:49;6.82;;;5.20;;
67979;SDS011;54760;47.490;19.030;2022-07-23T14:36:15;6.80;;;5.50;;
67979;SDS011;54760;47.490;19.030;2022-07-23T14:38:41;7.50;;;5.20;;
67979;SDS011;54760;47.490;19.030;2022-07-23T14:41:06;5.72;;;5.00;;
67979;SDS011;54760;47.490;19.030;2022-07-23T14:43:33;5.30;;;4.80;;
67979;SDS011;54760;47.490;19.030;2022-07-23T14:45:58;7.47;;;5.00;;
67979;SDS011;54760;47.490;19.030;2022-07-23T14:48:24;6.30;;;5.18;;
67979;SDS011;54760;47.490;19.030;2022-07-23T14:50:50;9.73;;;5.05;;
67979;SDS011;54760;47.490;19.030;2022-07-23T14:53:15;6.40;;;4.90;;
67979;SDS011;54760;47.490;19.030;2022-07-23T14:55:41;8.93;;;5.07;;
67979;SDS011;54760;47.490;19.030;2022-07-23T14:58:06;5.57;;;4.62;;
67979;SDS011;54760;47.490;19.030;2022-07-23T15:00:32;8.40;;;4.90;;
67979;SDS011;54760;47.490;19.030;2022-07-23T15:02:57;7.45;;;5.22;;
67979;SDS011;54760;47.490;19.030;2022-07-23T15:05:23;6.75;;;4.65;;
67979;SDS011;54760;47.490;19.030;2022-07-23T15:07:48;7.50;;;4.87;;
67979;SDS011;54760;47.490;19.030;2022-07-23T15:10:14;6.25;;;4.90;;
67979;SDS011;54760;47.490;19.030;2022-07-23T15:12:39;7.10;;;4.90;;
67979;SDS011;54760;47.490;19.030;2022-07-23T15:15:05;5.85;;;5.07;;
67979;SDS011;54760;47.490;19.030;2022-07-23T15:17:32;7.30;;;5.40;;
67979;SDS011;54760;47.490;19.030;2022-07-23T15:19:58;6.45;;;5.28;;
67979;SDS011;54760;47.490;19.030;2022-07-23T15:22:23;6.60;;;5.43;;
67979;SDS011;54760;47.490;19.030;2022-07-23T15:24:49;7.90;;;5.37;;
67979;SDS011;54760;47.490;19.030;2022-07-23T15:27:14;6.43;;;5.82;;
67979;SDS011;54760;47.490;19.030;2022-07-23T15:29:42;7.68;;;6.87;;
67979;SDS011;54760;47.490;19.030;2022-07-23T15:32:08;9.13;;;8.13;;
67979;SDS011;54760;47.490;19.030;2022-07-23T15:34:33;9.50;;;7.50;;